sensor_id;sensor_type;location;lat;lon;timestamp;P1;durP1;ratioP1;P2;durP2;ratioP2
12120;SDS011;6124;59.460;17.908;2022-10-16T00:00:06;23.23;;;16.30;;
12120;SDS011;6124;59.460;17.908;2022-10-16T00:02:33;24.83;;;16.37;;
12120;SDS011;6124;59.460;17.908;2022-10-16T00:05:00;21.67;;;14.97;;
12120;SDS011;6124;59.460;17.908;2022-10-16T00:07:28;24.53;;;17.07;;
12120;SDS011;6124;59.460;17.908;2022-10-16T00:09:55;25.23;;;17.03;;
12120;SDS011;6124;59.460;17.908;2022-10-16T00:12:22;24.33;;;16.20;;
12120;SDS011;6124;59.460;17.908;2022-10-16T00:14:50;28.13;;;18.67;;
12120;SDS011;6124;59.460;17.908;2022-10-16T00:17:18;28.30;;;18.93;;
12120;SDS011;6124;59.460;17.908;2022-10-16T00:19:45;25.37;;;17.83;;
12120;SDS011;6124;59.460;17.908;2022-10-16T00:22:13;25.83;;;17.70;;
12120;SDS011;6124;59.460;17.908;2022-10-16T00:24:40;26.07;;;17.47;;
12120;SDS011;6124;59.460;17.908;2022-10-16T00:27:07;28.93;;;17.07;;
12120;SDS011;6124;59.460;17.908;2022-10-16T00:29:34;20.80;;;16.13;;
12120;SDS011;6124;59.460;17.908;2022-10-16T00:32:02;24.33;;;16.47;;
12120;SDS011;6124;59.460;17.908;2022-10-16T00:34:30;21.87;;;15.97;;
12120;SDS011;6124;59.460;17.908;2022-10-16T00:36:58;25.00;;;16.43;;
12120;SDS011;6124;59.460;17.908;2022-10-16T00:39:25;24.70;;;16.97;;
12120;SDS011;6124;59.460;17.908;2022-10-16T00:41:52;20.50;;;15.47;;
12120;SDS011;6124;59.460;17.908;2022-10-16T00:47:07;19.23;;;15.10;;
12120;SDS011;6124;59.460;17.908;2022-10-16T00:49:36;22.20;;;14.80;;
12120;SDS011;6124;59.460;17.908;2022-10-16T00:52:04;20.40;;;13.87;;
12120;SDS011;6124;59.460;17.908;2022-10-16T00:54:32;18.47;;;14.60;;
12120;SDS011;6124;59.460;17.908;2022-10-16T00:57:00;20.23;;;14.27;;
12120;SDS011;6124;59.460;17.908;2022-10-16T00:59:28;20.97;;;13.83;;
12120;SDS011;6124;59.460;17.908;2022-10-16T01:01:56;22.13;;;14.57;;
12120;SDS011;6124;59.460;17.908;2022-10-16T01:04:23;22.53;;;14.40;;
12120;SDS011;6124;59.460;17.908;2022-10-16T01:06:55;19.57;;;14.40;;
12120;SDS011;6124;59.460;17.908;2022-10-16T01:09:26;19.80;;;14.13;;
12120;SDS011;6124;59.460;17.908;2022-10-16T01:11:57;18.97;;;13.80;;
12120;SDS011;6124;59.460;17.908;2022-10-16T01:14:32;19.90;;;13.90;;
12120;SDS011;6124;59.460;17.908;2022-10-16T01:17:02;18.53;;;14.30;;
12120;SDS011;6124;59.460;17.908;2022-10-16T01:19:36;20.10;;;13.43;;
12120;SDS011;6124;59.460;17.908;2022-10-16T01:22:08;20.20;;;14.47;;
12120;SDS011;6124;59.460;17.908;2022-10-16T01:24:38;21.13;;;14.20;;
12120;SDS011;6124;59.460;17.908;2022-10-16T01:27:11;22.00;;;15.27;;
12120;SDS011;6124;59.460;17.908;2022-10-16T01:29:40;18.73;;;14.00;;
12120;SDS011;6124;59.460;17.908;2022-10-16T01:32:10;20.17;;;14.00;;
12120;SDS011;6124;59.460;17.908;2022-10-16T01:34:40;19.33;;;14.43;;
12120;SDS011;6124;59.460;17.908;2022-10-16T01:37:09;19.70;;;14.37;;
12120;SDS011;6124;59.460;17.908;2022-10-16T01:39:39;22.43;;;14.83;;
12120;SDS011;6124;59.460;17.908;2022-10-16T01:42:08;19.83;;;14.13;;
12120;SDS011;6124;59.460;17.908;2022-10-16T01:44:37;19.83;;;14.53;;
12120;SDS011;6124;59.460;17.908;2022-10-16T01:47:05;22.13;;;16.30;;
12120;SDS011;6124;59.460;17.908;2022-10-16T01:49:34;23.20;;;16.40;;
12120;SDS011;6124;59.460;17.908;2022-10-16T01:52:04;25.03;;;17.27;;
12120;SDS011;6124;59.460;17.908;2022-10-16T01:54:32;23.07;;;16.53;;
12120;SDS011;6124;59.460;17.908;2022-10-16T01:57:01;23.97;;;16.93;;
12120;SDS011;6124;59.460;17.908;2022-10-16T01:59:30;23.83;;;16.70;;
12120;SDS011;6124;59.460;17.908;2022-10-16T02:02:00;23.00;;;17.20;;
12120;SDS011;6124;59.460;17.908;2022-10-16T02:04:29;24.93;;;18.17;;
12120;SDS011;6124;59.460;17.908;2022-10-16T02:06:57;23.73;;;17.30;;
12120;SDS011;6124;59.460;17.908;2022-10-16T02:09:25;24.63;;;16.90;;
12120;SDS011;6124;59.460;17.908;2022-10-16T02:11:53;22.37;;;16.80;;
12120;SDS011;6124;59.460;17.908;2022-10-16T02:14:21;25.90;;;16.20;;
12120;SDS011;6124;59.460;17.908;2022-10-16T02:16:49;23.60;;;15.47;;
12120;SDS011;6124;59.460;17.908;2022-10-16T02:19:18;21.47;;;15.37;;
12120;SDS011;6124;59.460;17.908;2022-10-16T02:21:47;21.37;;;15.13;;
12120;SDS011;6124;59.460;17.908;2022-10-16T02:24:17;20.70;;;15.13;;
12120;SDS011;6124;59.460;17.908;2022-10-16T02:26:48;21.37;;;15.57;;
12120;SDS011;6124;59.460;17.908;2022-10-16T02:29:16;21.07;;;14.77;;
12120;SDS011;6124;59.460;17.908;2022-10-16T02:31:45;22.57;;;15.13;;
12120;SDS011;6124;59.460;17.908;2022-10-16T02:34:13;18.43;;;14.07;;
12120;SDS011;6124;59.460;17.908;2022-10-16T02:36:43;21.03;;;13.60;;
12120;SDS011;6124;59.460;17.908;2022-10-16T02:39:11;20.23;;;14.20;;
12120;SDS011;6124;59.460;17.908;2022-10-16T02:41:39;20.30;;;13.97;;
12120;SDS011;6124;59.460;17.908;2022-10-16T02:44:06;19.23;;;14.03;;
12120;SDS011;6124;59.460;17.908;2022-10-16T02:46:33;17.87;;;13.60;;
12120;SDS011;6124;59.460;17.908;2022-10-16T02:49:00;18.63;;;13.43;;
12120;SDS011;6124;59.460;17.908;2022-10-16T02:51:28;16.53;;;12.83;;
12120;SDS011;6124;59.460;17.908;2022-10-16T02:53:56;14.77;;;12.10;;
12120;SDS011;6124;59.460;17.908;2022-10-16T02:56:24;15.17;;;12.13;;
12120;SDS011;6124;59.460;17.908;2022-10-16T02:58:51;16.53;;;12.23;;
12120;SDS011;6124;59.460;17.908;2022-10-16T03:01:18;14.93;;;12.10;;
12120;SDS011;6124;59.460;17.908;2022-10-16T03:03:45;17.37;;;11.43;;
12120;SDS011;6124;59.460;17.908;2022-10-16T03:06:13;16.17;;;12.13;;
12120;SDS011;6124;59.460;17.908;2022-10-16T03:08:40;16.27;;;12.37;;
12120;SDS011;6124;59.460;17.908;2022-10-16T03:11:09;14.57;;;11.00;;
12120;SDS011;6124;59.460;17.908;2022-10-16T03:13:36;15.63;;;12.10;;
12120;SDS011;6124;59.460;17.908;2022-10-16T03:16:03;17.87;;;11.30;;
12120;SDS011;6124;59.460;17.908;2022-10-16T03:18:31;15.23;;;12.00;;
12120;SDS011;6124;59.460;17.908;2022-10-16T03:20:58;16.60;;;11.43;;
12120;SDS011;6124;59.460;17.908;2022-10-16T03:23:25;18.27;;;11.47;;
12120;SDS011;6124;59.460;17.908;2022-10-16T03:25:53;16.07;;;12.00;;
12120;SDS011;6124;59.460;17.908;2022-10-16T03:28:21;18.53;;;12.03;;
12120;SDS011;6124;59.460;17.908;2022-10-16T03:30:49;16.00;;;11.47;;
12120;SDS011;6124;59.460;17.908;2022-10-16T03:33:16;16.93;;;12.77;;
12120;SDS011;6124;59.460;17.908;2022-10-16T03:35:50;17.97;;;12.83;;
12120;SDS011;6124;59.460;17.908;2022-10-16T03:38:17;20.10;;;12.87;;
12120;SDS011;6124;59.460;17.908;2022-10-16T03:40:44;18.07;;;12.47;;
12120;SDS011;6124;59.460;17.908;2022-10-16T03:43:12;15.97;;;12.00;;
12120;SDS011;6124;59.460;17.908;2022-10-16T03:45:41;14.97;;;11.87;;
12120;SDS011;6124;59.460;17.908;2022-10-16T03:48:08;16.20;;;12.47;;
12120;SDS011;6124;59.460;17.908;2022-10-16T03:50:35;16.73;;;12.63;;
12120;SDS011;6124;59.460;17.908;2022-10-16T03:53:02;17.23;;;12.27;;
12120;SDS011;6124;59.460;17.908;2022-10-16T03:55:30;16.90;;;11.97;;
12120;SDS011;6124;59.460;17.908;2022-10-16T03:57:57;15.40;;;11.60;;
12120;SDS011;6124;59.460;17.908;2022-10-16T04:00:24;14.90;;;11.27;;
12120;SDS011;6124;59.460;17.908;2022-10-16T04:02:53;15.13;;;11.53;;
12120;SDS011;6124;59.460;17.908;2022-10-16T04:05:20;14.63;;;11.40;;
12120;SDS011;6124;59.460;17.908;2022-10-16T04:07:48;15.80;;;11.73;;
12120;SDS011;6124;59.460;17.908;2022-10-16T04:10:15;14.03;;;10.53;;
12120;SDS011;6124;59.460;17.908;2022-10-16T04:12:42;15.77;;;11.73;;
12120;SDS011;6124;59.460;17.908;2022-10-16T04:15:09;14.80;;;11.80;;
12120;SDS011;6124;59.460;17.908;2022-10-16T04:17:37;15.70;;;11.20;;
12120;SDS011;6124;59.460;17.908;2022-10-16T04:20:06;17.17;;;12.00;;
12120;SDS011;6124;59.460;17.908;2022-10-16T04:22:33;18.10;;;11.63;;
12120;SDS011;6124;59.460;17.908;2022-10-16T04:25:00;15.53;;;11.47;;
12120;SDS011;6124;59.460;17.908;2022-10-16T04:27:28;14.60;;;11.30;;
12120;SDS011;6124;59.460;17.908;2022-10-16T04:29:56;12.57;;;10.27;;
12120;SDS011;6124;59.460;17.908;2022-10-16T04:32:23;12.07;;;10.17;;
12120;SDS011;6124;59.460;17.908;2022-10-16T04:34:51;17.53;;;11.50;;
12120;SDS011;6124;59.460;17.908;2022-10-16T04:37:22;15.20;;;10.43;;
12120;SDS011;6124;59.460;17.908;2022-10-16T04:39:49;15.47;;;10.47;;
12120;SDS011;6124;59.460;17.908;2022-10-16T04:42:17;13.80;;;10.63;;
12120;SDS011;6124;59.460;17.908;2022-10-16T04:44:44;15.00;;;10.00;;
12120;SDS011;6124;59.460;17.908;2022-10-16T04:47:11;12.67;;;9.63;;
12120;SDS011;6124;59.460;17.908;2022-10-16T04:49:39;12.67;;;9.13;;
12120;SDS011;6124;59.460;17.908;2022-10-16T04:52:06;14.67;;;9.37;;
12120;SDS011;6124;59.460;17.908;2022-10-16T04:54:36;14.30;;;9.73;;
12120;SDS011;6124;59.460;17.908;2022-10-16T04:57:03;12.17;;;9.17;;
12120;SDS011;6124;59.460;17.908;2022-10-16T04:59:30;13.00;;;9.63;;
12120;SDS011;6124;59.460;17.908;2022-10-16T05:01:58;13.77;;;9.87;;
12120;SDS011;6124;59.460;17.908;2022-10-16T05:04:25;11.07;;;8.80;;
12120;SDS011;6124;59.460;17.908;2022-10-16T05:06:52;11.63;;;8.53;;
12120;SDS011;6124;59.460;17.908;2022-10-16T05:09:19;10.90;;;8.97;;
12120;SDS011;6124;59.460;17.908;2022-10-16T05:11:48;10.37;;;8.93;;
12120;SDS011;6124;59.460;17.908;2022-10-16T05:14:15;11.13;;;8.43;;
12120;SDS011;6124;59.460;17.908;2022-10-16T05:16:43;12.77;;;8.57;;
12120;SDS011;6124;59.460;17.908;2022-10-16T05:19:10;10.43;;;8.60;;
12120;SDS011;6124;59.460;17.908;2022-10-16T05:21:37;10.37;;;8.53;;
12120;SDS011;6124;59.460;17.908;2022-10-16T05:24:04;13.13;;;8.97;;
12120;SDS011;6124;59.460;17.908;2022-10-16T05:26:32;10.03;;;8.33;;
12120;SDS011;6124;59.460;17.908;2022-10-16T05:29:00;11.40;;;8.60;;
12120;SDS011;6124;59.460;17.908;2022-10-16T05:31:28;9.70;;;7.83;;
12120;SDS011;6124;59.460;17.908;2022-10-16T05:33:57;13.73;;;9.03;;
12120;SDS011;6124;59.460;17.908;2022-10-16T05:36:25;12.53;;;8.53;;
12120;SDS011;6124;59.460;17.908;2022-10-16T05:38:52;11.20;;;8.80;;
12120;SDS011;6124;59.460;17.908;2022-10-16T05:41:19;11.27;;;8.00;;
12120;SDS011;6124;59.460;17.908;2022-10-16T05:43:48;12.43;;;8.50;;
12120;SDS011;6124;59.460;17.908;2022-10-16T05:46:17;10.03;;;8.40;;
12120;SDS011;6124;59.460;17.908;2022-10-16T05:48:44;10.47;;;8.37;;
12120;SDS011;6124;59.460;17.908;2022-10-16T05:51:12;12.00;;;8.70;;
12120;SDS011;6124;59.460;17.908;2022-10-16T05:53:40;11.00;;;8.77;;
12120;SDS011;6124;59.460;17.908;2022-10-16T05:56:09;12.20;;;9.83;;
12120;SDS011;6124;59.460;17.908;2022-10-16T05:58:37;14.47;;;9.73;;
12120;SDS011;6124;59.460;17.908;2022-10-16T06:01:06;11.57;;;9.57;;
12120;SDS011;6124;59.460;17.908;2022-10-16T06:03:35;12.27;;;9.87;;
12120;SDS011;6124;59.460;17.908;2022-10-16T06:06:07;11.80;;;9.43;;
12120;SDS011;6124;59.460;17.908;2022-10-16T06:08:34;12.70;;;9.60;;
12120;SDS011;6124;59.460;17.908;2022-10-16T06:11:02;12.07;;;9.70;;
12120;SDS011;6124;59.460;17.908;2022-10-16T06:13:29;13.20;;;10.30;;
12120;SDS011;6124;59.460;17.908;2022-10-16T06:15:56;15.17;;;11.13;;
12120;SDS011;6124;59.460;17.908;2022-10-16T06:18:24;14.93;;;10.93;;
12120;SDS011;6124;59.460;17.908;2022-10-16T06:20:53;13.33;;;10.60;;
12120;SDS011;6124;59.460;17.908;2022-10-16T06:23:20;15.80;;;11.53;;
12120;SDS011;6124;59.460;17.908;2022-10-16T06:25:48;15.73;;;11.90;;
12120;SDS011;6124;59.460;17.908;2022-10-16T06:28:15;15.00;;;11.23;;
12120;SDS011;6124;59.460;17.908;2022-10-16T06:30:42;13.93;;;11.03;;
12120;SDS011;6124;59.460;17.908;2022-10-16T06:33:10;14.53;;;11.27;;
12120;SDS011;6124;59.460;17.908;2022-10-16T06:35:38;15.87;;;11.50;;
12120;SDS011;6124;59.460;17.908;2022-10-16T06:38:06;14.90;;;10.90;;
12120;SDS011;6124;59.460;17.908;2022-10-16T06:40:33;15.80;;;11.77;;
12120;SDS011;6124;59.460;17.908;2022-10-16T06:43:01;15.77;;;11.43;;
12120;SDS011;6124;59.460;17.908;2022-10-16T06:45:28;16.30;;;11.97;;
12120;SDS011;6124;59.460;17.908;2022-10-16T06:47:55;16.83;;;11.57;;
12120;SDS011;6124;59.460;17.908;2022-10-16T06:50:23;19.60;;;13.20;;
12120;SDS011;6124;59.460;17.908;2022-10-16T06:52:50;18.77;;;12.80;;
12120;SDS011;6124;59.460;17.908;2022-10-16T06:55:18;19.20;;;12.90;;
12120;SDS011;6124;59.460;17.908;2022-10-16T06:57:46;19.50;;;13.13;;
12120;SDS011;6124;59.460;17.908;2022-10-16T07:00:14;18.10;;;12.47;;
12120;SDS011;6124;59.460;17.908;2022-10-16T07:02:41;16.77;;;12.00;;
12120;SDS011;6124;59.460;17.908;2022-10-16T07:05:09;18.53;;;12.13;;
12120;SDS011;6124;59.460;17.908;2022-10-16T07:07:36;18.97;;;13.47;;
12120;SDS011;6124;59.460;17.908;2022-10-16T07:10:04;15.60;;;11.80;;
12120;SDS011;6124;59.460;17.908;2022-10-16T07:12:32;17.33;;;12.20;;
12120;SDS011;6124;59.460;17.908;2022-10-16T07:15:00;16.87;;;12.30;;
12120;SDS011;6124;59.460;17.908;2022-10-16T07:17:27;17.67;;;11.77;;
12120;SDS011;6124;59.460;17.908;2022-10-16T07:19:54;15.47;;;11.47;;
12120;SDS011;6124;59.460;17.908;2022-10-16T07:22:21;16.53;;;11.40;;
12120;SDS011;6124;59.460;17.908;2022-10-16T07:24:49;13.27;;;10.83;;
12120;SDS011;6124;59.460;17.908;2022-10-16T07:27:16;15.47;;;11.17;;
12120;SDS011;6124;59.460;17.908;2022-10-16T07:29:45;16.30;;;11.20;;
12120;SDS011;6124;59.460;17.908;2022-10-16T07:32:12;15.67;;;11.30;;
12120;SDS011;6124;59.460;17.908;2022-10-16T07:34:40;14.23;;;10.50;;
12120;SDS011;6124;59.460;17.908;2022-10-16T07:37:07;13.73;;;10.83;;
12120;SDS011;6124;59.460;17.908;2022-10-16T07:39:34;17.00;;;10.30;;
12120;SDS011;6124;59.460;17.908;2022-10-16T07:42:02;14.60;;;9.83;;
12120;SDS011;6124;59.460;17.908;2022-10-16T07:44:29;10.97;;;9.23;;
12120;SDS011;6124;59.460;17.908;2022-10-16T07:46:57;14.80;;;9.80;;
12120;SDS011;6124;59.460;17.908;2022-10-16T07:49:25;13.27;;;9.77;;
12120;SDS011;6124;59.460;17.908;2022-10-16T07:51:52;11.37;;;8.97;;
12120;SDS011;6124;59.460;17.908;2022-10-16T07:54:19;10.43;;;8.87;;
12120;SDS011;6124;59.460;17.908;2022-10-16T07:56:47;11.47;;;9.20;;
12120;SDS011;6124;59.460;17.908;2022-10-16T07:59:14;10.83;;;8.50;;
12120;SDS011;6124;59.460;17.908;2022-10-16T08:01:41;14.60;;;7.97;;
12120;SDS011;6124;59.460;17.908;2022-10-16T08:04:10;12.17;;;8.40;;
12120;SDS011;6124;59.460;17.908;2022-10-16T08:06:38;11.20;;;8.17;;
12120;SDS011;6124;59.460;17.908;2022-10-16T08:09:06;10.47;;;7.80;;
12120;SDS011;6124;59.460;17.908;2022-10-16T08:11:34;10.00;;;7.63;;
12120;SDS011;6124;59.460;17.908;2022-10-16T08:14:01;8.00;;;7.03;;
12120;SDS011;6124;59.460;17.908;2022-10-16T08:16:28;7.87;;;6.37;;
12120;SDS011;6124;59.460;17.908;2022-10-16T08:18:56;8.93;;;6.33;;
12120;SDS011;6124;59.460;17.908;2022-10-16T08:21:24;8.87;;;6.60;;
12120;SDS011;6124;59.460;17.908;2022-10-16T08:23:52;8.23;;;6.00;;
12120;SDS011;6124;59.460;17.908;2022-10-16T08:26:21;7.10;;;5.70;;
12120;SDS011;6124;59.460;17.908;2022-10-16T08:28:49;9.37;;;6.00;;
12120;SDS011;6124;59.460;17.908;2022-10-16T08:31:16;6.70;;;5.77;;
12120;SDS011;6124;59.460;17.908;2022-10-16T08:33:44;7.53;;;5.67;;
12120;SDS011;6124;59.460;17.908;2022-10-16T08:36:13;6.73;;;5.53;;
12120;SDS011;6124;59.460;17.908;2022-10-16T08:38:41;10.17;;;5.53;;
12120;SDS011;6124;59.460;17.908;2022-10-16T08:41:16;7.50;;;5.70;;
12120;SDS011;6124;59.460;17.908;2022-10-16T08:43:53;7.90;;;5.63;;
12120;SDS011;6124;59.460;17.908;2022-10-16T08:46:25;7.20;;;5.80;;
12120;SDS011;6124;59.460;17.908;2022-10-16T08:48:56;6.57;;;5.50;;
12120;SDS011;6124;59.460;17.908;2022-10-16T08:51:24;7.90;;;5.57;;
12120;SDS011;6124;59.460;17.908;2022-10-16T08:53:55;10.27;;;5.60;;
12120;SDS011;6124;59.460;17.908;2022-10-16T08:56:23;6.73;;;5.53;;
12120;SDS011;6124;59.460;17.908;2022-10-16T08:58:51;8.60;;;5.60;;
12120;SDS011;6124;59.460;17.908;2022-10-16T09:01:19;6.73;;;5.07;;
12120;SDS011;6124;59.460;17.908;2022-10-16T09:03:58;8.03;;;5.13;;
12120;SDS011;6124;59.460;17.908;2022-10-16T09:06:32;6.00;;;4.80;;
12120;SDS011;6124;59.460;17.908;2022-10-16T09:09:06;8.13;;;5.10;;
12120;SDS011;6124;59.460;17.908;2022-10-16T09:11:38;7.97;;;4.40;;
12120;SDS011;6124;59.460;17.908;2022-10-16T09:14:13;7.17;;;4.50;;
12120;SDS011;6124;59.460;17.908;2022-10-16T09:16:46;5.80;;;4.53;;
12120;SDS011;6124;59.460;17.908;2022-10-16T09:19:17;7.43;;;4.10;;
12120;SDS011;6124;59.460;17.908;2022-10-16T09:21:47;7.00;;;4.10;;
12120;SDS011;6124;59.460;17.908;2022-10-16T09:24:17;7.07;;;4.17;;
12120;SDS011;6124;59.460;17.908;2022-10-16T09:26:46;5.30;;;3.60;;
12120;SDS011;6124;59.460;17.908;2022-10-16T09:29:13;7.23;;;3.40;;
12120;SDS011;6124;59.460;17.908;2022-10-16T09:31:41;9.03;;;3.87;;
12120;SDS011;6124;59.460;17.908;2022-10-16T09:34:10;7.43;;;3.80;;
12120;SDS011;6124;59.460;17.908;2022-10-16T09:36:44;7.83;;;3.80;;
12120;SDS011;6124;59.460;17.908;2022-10-16T09:39:12;3.87;;;3.43;;
12120;SDS011;6124;59.460;17.908;2022-10-16T09:41:41;4.40;;;3.30;;
12120;SDS011;6124;59.460;17.908;2022-10-16T09:44:16;5.63;;;3.53;;
12120;SDS011;6124;59.460;17.908;2022-10-16T09:46:45;7.57;;;3.90;;
12120;SDS011;6124;59.460;17.908;2022-10-16T09:49:20;5.97;;;3.50;;
12120;SDS011;6124;59.460;17.908;2022-10-16T09:51:48;6.33;;;3.70;;
12120;SDS011;6124;59.460;17.908;2022-10-16T09:54:16;6.50;;;3.50;;
12120;SDS011;6124;59.460;17.908;2022-10-16T09:56:45;4.83;;;3.20;;
12120;SDS011;6124;59.460;17.908;2022-10-16T09:59:17;6.27;;;3.80;;
12120;SDS011;6124;59.460;17.908;2022-10-16T10:01:46;8.00;;;3.53;;
12120;SDS011;6124;59.460;17.908;2022-10-16T10:04:14;6.27;;;3.20;;
12120;SDS011;6124;59.460;17.908;2022-10-16T10:06:42;5.60;;;3.60;;
12120;SDS011;6124;59.460;17.908;2022-10-16T10:09:17;4.00;;;3.27;;
12120;SDS011;6124;59.460;17.908;2022-10-16T10:11:54;4.10;;;2.70;;
12120;SDS011;6124;59.460;17.908;2022-10-16T10:14:30;5.50;;;3.17;;
12120;SDS011;6124;59.460;17.908;2022-10-16T10:17:09;7.00;;;3.43;;
12120;SDS011;6124;59.460;17.908;2022-10-16T10:19:37;6.90;;;3.07;;
12120;SDS011;6124;59.460;17.908;2022-10-16T10:22:13;5.10;;;3.13;;
12120;SDS011;6124;59.460;17.908;2022-10-16T10:24:40;3.80;;;2.80;;
12120;SDS011;6124;59.460;17.908;2022-10-16T10:27:10;8.07;;;3.20;;
12120;SDS011;6124;59.460;17.908;2022-10-16T10:29:42;5.43;;;2.90;;
12120;SDS011;6124;59.460;17.908;2022-10-16T10:32:17;5.97;;;3.07;;
12120;SDS011;6124;59.460;17.908;2022-10-16T10:34:50;5.43;;;2.80;;
12120;SDS011;6124;59.460;17.908;2022-10-16T10:37:25;4.27;;;2.83;;
12120;SDS011;6124;59.460;17.908;2022-10-16T10:39:56;9.60;;;3.40;;
12120;SDS011;6124;59.460;17.908;2022-10-16T10:42:27;6.80;;;3.17;;
12120;SDS011;6124;59.460;17.908;2022-10-16T10:45:00;4.43;;;2.80;;
12120;SDS011;6124;59.460;17.908;2022-10-16T10:47:38;6.87;;;3.13;;
12120;SDS011;6124;59.460;17.908;2022-10-16T10:50:12;6.60;;;2.90;;
12120;SDS011;6124;59.460;17.908;2022-10-16T10:52:42;4.87;;;2.63;;
12120;SDS011;6124;59.460;17.908;2022-10-16T10:55:17;6.40;;;3.23;;
12120;SDS011;6124;59.460;17.908;2022-10-16T10:57:54;8.20;;;3.17;;
12120;SDS011;6124;59.460;17.908;2022-10-16T11:00:27;4.00;;;2.77;;
12120;SDS011;6124;59.460;17.908;2022-10-16T11:02:57;7.60;;;3.03;;
12120;SDS011;6124;59.460;17.908;2022-10-16T11:08:14;4.00;;;2.80;;
12120;SDS011;6124;59.460;17.908;2022-10-16T11:10:45;4.97;;;2.93;;
12120;SDS011;6124;59.460;17.908;2022-10-16T11:13:21;7.20;;;3.27;;
12120;SDS011;6124;59.460;17.908;2022-10-16T11:15:50;7.33;;;2.83;;
12120;SDS011;6124;59.460;17.908;2022-10-16T11:18:19;5.90;;;2.97;;
12120;SDS011;6124;59.460;17.908;2022-10-16T11:20:49;4.07;;;3.03;;
12120;SDS011;6124;59.460;17.908;2022-10-16T11:23:18;5.97;;;2.90;;
12120;SDS011;6124;59.460;17.908;2022-10-16T11:25:47;7.03;;;2.73;;
12120;SDS011;6124;59.460;17.908;2022-10-16T11:28:16;4.63;;;2.47;;
12120;SDS011;6124;59.460;17.908;2022-10-16T11:30:49;8.57;;;3.00;;
12120;SDS011;6124;59.460;17.908;2022-10-16T11:33:23;6.30;;;2.90;;
12120;SDS011;6124;59.460;17.908;2022-10-16T11:35:53;7.10;;;2.87;;
12120;SDS011;6124;59.460;17.908;2022-10-16T11:38:24;6.00;;;2.87;;
12120;SDS011;6124;59.460;17.908;2022-10-16T11:40:53;6.40;;;2.97;;
12120;SDS011;6124;59.460;17.908;2022-10-16T11:43:24;8.17;;;2.70;;
12120;SDS011;6124;59.460;17.908;2022-10-16T11:45:54;6.23;;;3.23;;
12120;SDS011;6124;59.460;17.908;2022-10-16T11:48:24;8.37;;;2.70;;
12120;SDS011;6124;59.460;17.908;2022-10-16T11:50:53;5.63;;;3.00;;
12120;SDS011;6124;59.460;17.908;2022-10-16T11:53:23;5.50;;;3.10;;
12120;SDS011;6124;59.460;17.908;2022-10-16T11:55:51;5.90;;;3.40;;
12120;SDS011;6124;59.460;17.908;2022-10-16T11:58:22;5.60;;;3.00;;
12120;SDS011;6124;59.460;17.908;2022-10-16T12:00:55;6.77;;;3.20;;
12120;SDS011;6124;59.460;17.908;2022-10-16T12:03:25;7.07;;;3.23;;
12120;SDS011;6124;59.460;17.908;2022-10-16T12:08:36;7.30;;;3.27;;
12120;SDS011;6124;59.460;17.908;2022-10-16T12:11:07;6.90;;;3.20;;
12120;SDS011;6124;59.460;17.908;2022-10-16T12:13:36;6.50;;;2.90;;
12120;SDS011;6124;59.460;17.908;2022-10-16T12:16:19;6.50;;;3.37;;
12120;SDS011;6124;59.460;17.908;2022-10-16T12:18:47;6.33;;;2.73;;
12120;SDS011;6124;59.460;17.908;2022-10-16T12:21:15;7.27;;;3.20;;
12120;SDS011;6124;59.460;17.908;2022-10-16T12:23:47;5.60;;;2.70;;
12120;SDS011;6124;59.460;17.908;2022-10-16T12:26:23;7.97;;;2.80;;
12120;SDS011;6124;59.460;17.908;2022-10-16T12:28:50;5.50;;;2.80;;
12120;SDS011;6124;59.460;17.908;2022-10-16T12:31:19;7.73;;;3.10;;
12120;SDS011;6124;59.460;17.908;2022-10-16T12:33:56;5.83;;;2.63;;
12120;SDS011;6124;59.460;17.908;2022-10-16T12:36:28;7.00;;;3.10;;
12120;SDS011;6124;59.460;17.908;2022-10-16T12:38:56;7.00;;;3.10;;
12120;SDS011;6124;59.460;17.908;2022-10-16T12:41:24;5.23;;;2.93;;
12120;SDS011;6124;59.460;17.908;2022-10-16T12:43:52;4.53;;;2.83;;
12120;SDS011;6124;59.460;17.908;2022-10-16T12:46:22;4.07;;;2.83;;
12120;SDS011;6124;59.460;17.908;2022-10-16T12:48:50;5.93;;;2.70;;
12120;SDS011;6124;59.460;17.908;2022-10-16T12:51:22;6.03;;;2.90;;
12120;SDS011;6124;59.460;17.908;2022-10-16T12:53:57;5.37;;;2.93;;
12120;SDS011;6124;59.460;17.908;2022-10-16T12:56:27;6.43;;;2.83;;
12120;SDS011;6124;59.460;17.908;2022-10-16T12:58:59;7.70;;;3.07;;
12120;SDS011;6124;59.460;17.908;2022-10-16T13:01:36;5.23;;;3.00;;
12120;SDS011;6124;59.460;17.908;2022-10-16T13:04:13;4.30;;;2.67;;
12120;SDS011;6124;59.460;17.908;2022-10-16T13:06:45;6.33;;;3.20;;
12120;SDS011;6124;59.460;17.908;2022-10-16T13:12:14;7.73;;;3.17;;
12120;SDS011;6124;59.460;17.908;2022-10-16T13:14:46;3.57;;;2.77;;
12120;SDS011;6124;59.460;17.908;2022-10-16T13:17:20;5.93;;;2.80;;
12120;SDS011;6124;59.460;17.908;2022-10-16T13:19:51;4.77;;;3.00;;
12120;SDS011;6124;59.460;17.908;2022-10-16T13:22:22;5.20;;;3.53;;
12120;SDS011;6124;59.460;17.908;2022-10-16T13:24:58;6.43;;;3.33;;
12120;SDS011;6124;59.460;17.908;2022-10-16T13:27:30;5.47;;;3.13;;
12120;SDS011;6124;59.460;17.908;2022-10-16T13:30:00;6.90;;;2.97;;
12120;SDS011;6124;59.460;17.908;2022-10-16T13:32:29;5.60;;;3.90;;
12120;SDS011;6124;59.460;17.908;2022-10-16T13:34:57;6.17;;;3.17;;
12120;SDS011;6124;59.460;17.908;2022-10-16T13:37:26;4.90;;;2.80;;
12120;SDS011;6124;59.460;17.908;2022-10-16T13:40:02;6.03;;;3.00;;
12120;SDS011;6124;59.460;17.908;2022-10-16T13:42:29;4.97;;;2.90;;
12120;SDS011;6124;59.460;17.908;2022-10-16T13:44:58;4.67;;;2.60;;
12120;SDS011;6124;59.460;17.908;2022-10-16T13:47:26;3.97;;;2.40;;
12120;SDS011;6124;59.460;17.908;2022-10-16T13:50:01;4.10;;;2.70;;
12120;SDS011;6124;59.460;17.908;2022-10-16T13:52:29;4.97;;;2.83;;
12120;SDS011;6124;59.460;17.908;2022-10-16T13:54:56;7.40;;;2.80;;
12120;SDS011;6124;59.460;17.908;2022-10-16T13:57:24;6.43;;;2.57;;
12120;SDS011;6124;59.460;17.908;2022-10-16T13:59:52;4.23;;;2.00;;
12120;SDS011;6124;59.460;17.908;2022-10-16T14:02:21;5.63;;;1.70;;
12120;SDS011;6124;59.460;17.908;2022-10-16T14:04:49;3.50;;;1.70;;
12120;SDS011;6124;59.460;17.908;2022-10-16T14:07:20;4.13;;;1.80;;
12120;SDS011;6124;59.460;17.908;2022-10-16T14:09:48;5.97;;;1.77;;
12120;SDS011;6124;59.460;17.908;2022-10-16T14:12:16;2.60;;;1.80;;
12120;SDS011;6124;59.460;17.908;2022-10-16T14:14:44;3.37;;;1.80;;
12120;SDS011;6124;59.460;17.908;2022-10-16T14:17:15;4.47;;;1.93;;
12120;SDS011;6124;59.460;17.908;2022-10-16T14:19:45;4.63;;;2.00;;
12120;SDS011;6124;59.460;17.908;2022-10-16T14:22:23;3.27;;;1.90;;
12120;SDS011;6124;59.460;17.908;2022-10-16T14:24:51;2.50;;;1.90;;
12120;SDS011;6124;59.460;17.908;2022-10-16T14:27:23;2.83;;;1.57;;
12120;SDS011;6124;59.460;17.908;2022-10-16T14:30:01;3.47;;;1.70;;
12120;SDS011;6124;59.460;17.908;2022-10-16T14:32:31;5.50;;;1.67;;
12120;SDS011;6124;59.460;17.908;2022-10-16T14:34:58;3.60;;;1.90;;
12120;SDS011;6124;59.460;17.908;2022-10-16T14:37:27;3.50;;;2.03;;
12120;SDS011;6124;59.460;17.908;2022-10-16T14:39:55;2.30;;;1.90;;
12120;SDS011;6124;59.460;17.908;2022-10-16T14:42:24;4.33;;;1.80;;
12120;SDS011;6124;59.460;17.908;2022-10-16T14:44:51;3.23;;;1.67;;
12120;SDS011;6124;59.460;17.908;2022-10-16T14:47:20;1.83;;;1.67;;
12120;SDS011;6124;59.460;17.908;2022-10-16T14:49:50;6.20;;;1.83;;
12120;SDS011;6124;59.460;17.908;2022-10-16T14:52:18;3.80;;;1.73;;
12120;SDS011;6124;59.460;17.908;2022-10-16T14:54:49;2.73;;;1.57;;
12120;SDS011;6124;59.460;17.908;2022-10-16T14:57:20;2.60;;;1.63;;